Time;durP1;ratioP1;P1;durP2;ratioP2;P2;SDS_P1;SDS_P2;PMS_P1;PMS_P2;Temp;Humidity;BMP_temperature;BMP_pressure;BME280_temperature;BME280_humidity;BME280_pressure;Samples;Min_cycle;Max_cycle;Signal;HPM_P1;HPM_P2
2021/07/09 00:01:43;;;;;;;2.90;0.63;;;13.30;99.90;;;;;;5106640;28;20547;-84
2021/07/09 00:04:09;;;;;;;0.70;0.70;;;13.30;99.90;;;;;;5100700;28;20184;-85
2021/07/09 00:06:35;;;;;;;0.50;0.50;;;13.30;99.90;;;;;;5101680;28;20183;-85
2021/07/09 00:09:03;;;;;;;0.67;0.67;;;13.40;99.90;;;;;;5102117;28;20223;-85
2021/07/09 00:11:29;;;;;;;0.70;0.70;;;13.40;99.90;;;;;;5100700;28;20638;-85
2021/07/09 00:13:55;;;;;;;0.70;0.70;;;13.30;99.90;;;;;;5103011;28;20208;-85
2021/07/09 00:16:21;;;;;;;0.77;0.70;;;13.30;99.90;;;;;;5101291;28;20179;-85
2021/07/09 00:18:48;;;;;;;0.80;0.70;;;13.30;99.90;;;;;;5103982;28;20186;-85
2021/07/09 00:21:15;;;;;;;0.70;0.70;;;13.30;99.90;;;;;;5101444;28;20630;-85
2021/07/09 00:23:41;;;;;;;0.77;0.77;;;13.30;99.90;;;;;;5103556;28;20176;-85
2021/07/09 00:26:07;;;;;;;0.50;0.50;;;13.30;99.90;;;;;;5103613;28;20177;-85
2021/07/09 00:28:33;;;;;;;0.87;0.70;;;13.20;99.90;;;;;;5103627;28;20274;-85
2021/07/09 00:30:59;;;;;;;0.73;0.73;;;13.30;99.90;;;;;;5103841;28;20288;-85
2021/07/09 00:33:24;;;;;;;0.80;0.80;;;13.20;99.90;;;;;;5103810;28;20180;-85
2021/07/09 00:35:50;;;;;;;0.97;0.87;;;13.30;99.90;;;;;;5103167;28;20598;-85
2021/07/09 00:38:16;;;;;;;1.27;0.60;;;13.30;99.90;;;;;;5101957;28;20222;-85
2021/07/09 00:40:42;;;;;;;0.70;0.60;;;13.30;99.90;;;;;;5102180;28;20218;-85
2021/07/09 00:43:08;;;;;;;0.60;0.60;;;13.20;99.90;;;;;;5108214;28;20172;-85
2021/07/09 00:45:34;;;;;;;0.40;0.40;;;13.20;99.90;;;;;;5100841;28;20190;-85
2021/07/09 00:47:59;;;;;;;0.60;0.60;;;13.20;99.90;;;;;;5100774;28;20200;-85
2021/07/09 00:50:25;;;;;;;0.50;0.50;;;13.20;99.90;;;;;;5101004;28;20264;-85
2021/07/09 00:52:51;;;;;;;1.67;0.70;;;13.20;99.90;;;;;;5101294;28;20569;-85
2021/07/09 00:55:18;;;;;;;0.40;0.40;;;13.10;99.90;;;;;;5101715;28;20565;-84
2021/07/09 00:57:47;;;;;;;0.40;0.30;;;13.10;99.90;;;;;;5100754;28;20180;-84
2021/07/09 01:00:14;;;;;;;0.43;0.40;;;13.10;99.90;;;;;;5101288;28;20192;-84
2021/07/09 01:02:40;;;;;;;0.50;0.50;;;13.00;99.90;;;;;;5101047;28;20176;-85
2021/07/09 01:05:09;;;;;;;0.50;0.50;;;13.00;99.90;;;;;;5100685;28;20180;-85
2021/07/09 01:07:35;;;;;;;1.90;0.40;;;13.00;99.90;;;;;;5102458;28;20176;-85
2021/07/09 01:10:02;;;;;;;0.40;0.40;;;13.00;99.90;;;;;;5099750;28;20204;-84
2021/07/09 01:12:28;;;;;;;1.13;0.83;;;12.90;99.90;;;;;;5101243;28;20206;-84
2021/07/09 01:14:55;;;;;;;0.47;0.47;;;12.90;99.90;;;;;;5103471;28;20196;-84
2021/07/09 01:17:21;;;;;;;0.40;0.40;;;12.90;99.90;;;;;;5102421;28;20180;-84
2021/07/09 01:19:47;;;;;;;0.40;0.40;;;12.90;99.90;;;;;;5101827;28;20197;-84
2021/07/09 01:22:13;;;;;;;0.30;0.30;;;12.80;99.90;;;;;;5101657;28;20190;-84
2021/07/09 01:24:39;;;;;;;0.77;0.50;;;12.80;99.90;;;;;;5101595;28;20238;-84
2021/07/09 01:27:06;;;;;;;0.87;0.40;;;12.80;99.90;;;;;;5100605;28;20178;-83
2021/07/09 01:29:31;;;;;;;0.40;0.40;;;12.70;99.90;;;;;;5100487;28;20200;-84
2021/07/09 01:31:58;;;;;;;0.50;0.33;;;12.80;99.90;;;;;;5101421;28;20261;-84
2021/07/09 01:34:24;;;;;;;0.40;0.40;;;12.70;99.90;;;;;;5099986;28;20246;-83
2021/07/09 01:36:50;;;;;;;0.30;0.30;;;12.80;99.90;;;;;;5100394;28;20185;-84
2021/07/09 01:39:17;;;;;;;0.40;0.40;;;12.80;99.90;;;;;;5101452;28;20189;-83
2021/07/09 01:41:43;;;;;;;0.40;0.40;;;12.80;99.90;;;;;;5099047;28;20227;-84
2021/07/09 01:44:09;;;;;;;0.40;0.40;;;12.80;99.90;;;;;;5100613;28;20198;-84
2021/07/09 01:46:35;;;;;;;0.40;0.40;;;12.80;99.90;;;;;;5098622;28;20179;-84
2021/07/09 01:49:02;;;;;;;0.37;0.37;;;12.70;99.90;;;;;;5097581;28;20270;-83
2021/07/09 01:51:28;;;;;;;0.30;0.30;;;12.70;99.90;;;;;;5097255;28;20198;-84
2021/07/09 01:53:54;;;;;;;0.40;0.40;;;12.70;99.90;;;;;;5097660;28;20656;-84
2021/07/09 01:56:19;;;;;;;0.33;0.30;;;12.70;99.90;;;;;;5096485;28;20266;-84
2021/07/09 01:58:45;;;;;;;0.30;0.30;;;12.70;99.90;;;;;;5096343;28;20275;-83
2021/07/09 02:01:11;;;;;;;0.60;0.40;;;12.70;99.90;;;;;;5096833;28;20258;-83
2021/07/09 02:03:36;;;;;;;0.30;0.30;;;12.70;99.90;;;;;;5096769;28;20197;-82
2021/07/09 02:06:02;;;;;;;0.20;0.20;;;12.60;99.90;;;;;;5096508;28;20175;-82
2021/07/09 02:08:28;;;;;;;0.37;0.37;;;12.60;99.90;;;;;;5094686;28;20307;-82
2021/07/09 02:10:53;;;;;;;1.80;0.30;;;12.60;99.90;;;;;;5095720;28;20279;-82
2021/07/09 02:13:19;;;;;;;0.30;0.30;;;12.60;99.90;;;;;;5110583;28;20230;-83
2021/07/09 02:15:46;;;;;;;1.33;0.30;;;12.60;99.90;;;;;;5102337;28;20183;-83
2021/07/09 02:18:13;;;;;;;0.30;0.30;;;12.60;99.90;;;;;;5102074;28;20179;-83
2021/07/09 02:20:39;;;;;;;0.30;0.30;;;12.60;99.90;;;;;;5103631;28;20192;-83
2021/07/09 02:23:08;;;;;;;0.83;0.40;;;12.60;99.90;;;;;;5103821;28;20233;-82
2021/07/09 02:25:34;;;;;;;0.53;0.43;;;12.60;99.90;;;;;;5103372;28;20182;-82
2021/07/09 02:28:00;;;;;;;0.40;0.40;;;12.60;99.90;;;;;;5103327;28;20308;-83
2021/07/09 02:30:28;;;;;;;0.30;0.30;;;12.60;99.90;;;;;;5104678;28;20228;-82
2021/07/09 02:32:54;;;;;;;0.30;0.30;;;12.50;99.90;;;;;;5102639;28;20180;-84
2021/07/09 02:35:22;;;;;;;0.40;0.40;;;12.50;99.90;;;;;;5103295;28;20198;-83
2021/07/09 02:37:48;;;;;;;0.37;0.33;;;12.50;99.90;;;;;;5104446;28;20649;-83
2021/07/09 02:40:17;;;;;;;0.40;0.40;;;12.50;99.90;;;;;;5104193;28;20226;-83
2021/07/09 02:42:45;;;;;;;0.40;0.40;;;12.50;99.90;;;;;;5104768;28;20185;-83
2021/07/09 02:45:11;;;;;;;0.50;0.50;;;12.50;99.90;;;;;;5108518;28;20516;-83
2021/07/09 02:47:40;;;;;;;0.60;0.50;;;12.50;99.90;;;;;;5101862;28;20604;-82
2021/07/09 02:50:09;;;;;;;0.60;0.60;;;12.50;99.90;;;;;;5102917;28;20200;-82
2021/07/09 02:52:35;;;;;;;0.60;0.60;;;12.50;99.90;;;;;;5102364;28;20178;-83
2021/07/09 02:55:05;;;;;;;1.60;0.60;;;12.50;99.90;;;;;;5101242;28;20234;-83
2021/07/09 02:57:31;;;;;;;0.60;0.60;;;12.60;99.90;;;;;;5102316;28;20173;-82
2021/07/09 02:59:57;;;;;;;0.60;0.60;;;12.60;99.90;;;;;;5101248;28;20200;-83
2021/07/09 03:02:23;;;;;;;0.73;0.73;;;12.60;99.90;;;;;;5101002;28;20183;-83
2021/07/09 03:04:49;;;;;;;2.00;0.70;;;12.60;99.90;;;;;;5102569;28;20268;-83
2021/07/09 03:07:15;;;;;;;0.80;0.80;;;12.60;99.90;;;;;;5102047;28;20196;-82
2021/07/09 03:09:40;;;;;;;1.20;0.83;;;12.60;99.90;;;;;;5102764;28;20198;-81
2021/07/09 03:12:06;;;;;;;0.80;0.80;;;12.60;99.90;;;;;;5101543;28;20206;-82
2021/07/09 03:14:32;;;;;;;0.93;0.90;;;12.60;99.90;;;;;;5103068;28;20211;-83
2021/07/09 03:16:58;;;;;;;1.57;1.17;;;12.60;99.90;;;;;;5101716;28;20263;-83
2021/07/09 03:19:24;;;;;;;1.30;1.10;;;12.60;99.90;;;;;;5100572;28;20679;-82
2021/07/09 03:21:49;;;;;;;0.80;0.80;;;12.60;99.90;;;;;;5101074;28;20178;-82
2021/07/09 03:24:15;;;;;;;1.33;0.97;;;12.60;99.90;;;;;;5102542;28;20182;-82
2021/07/09 03:26:41;;;;;;;1.10;1.00;;;12.60;99.90;;;;;;5099635;28;20230;-82
2021/07/09 03:29:06;;;;;;;2.20;0.83;;;12.60;99.90;;;;;;5094173;28;20309;-82
2021/07/09 03:31:32;;;;;;;1.30;1.03;;;12.60;99.90;;;;;;5098793;28;20589;-83
2021/07/09 03:33:59;;;;;;;1.20;0.90;;;12.60;99.90;;;;;;5102543;28;20202;-83
2021/07/09 03:36:25;;;;;;;1.93;1.00;;;12.60;99.90;;;;;;5103548;28;20263;-83
2021/07/09 03:38:52;;;;;;;1.37;1.10;;;12.50;99.90;;;;;;5106742;28;20230;-83
2021/07/09 03:41:18;;;;;;;2.13;1.20;;;12.50;99.90;;;;;;5104557;28;20179;-82
2021/07/09 03:43:44;;;;;;;2.80;1.20;;;12.50;99.90;;;;;;5106613;28;20701;-83
2021/07/09 03:46:10;;;;;;;1.40;1.30;;;12.50;99.90;;;;;;5104919;28;20203;-83
2021/07/09 03:48:35;;;;;;;2.50;1.20;;;12.50;99.90;;;;;;5105018;28;20183;-83
2021/07/09 03:51:01;;;;;;;1.37;1.20;;;12.50;99.90;;;;;;5106116;28;20175;-83
2021/07/09 03:53:27;;;;;;;1.73;1.10;;;12.60;99.90;;;;;;5104343;28;20179;-83
2021/07/09 03:55:52;;;;;;;1.20;1.10;;;12.50;99.90;;;;;;5103137;28;20176;-83
2021/07/09 03:58:18;;;;;;;1.00;0.90;;;12.60;99.90;;;;;;5103943;28;20623;-83
2021/07/09 04:00:44;;;;;;;1.07;1.00;;;12.60;99.90;;;;;;5103504;28;20335;-83
2021/07/09 04:03:10;;;;;;;1.23;1.10;;;12.60;99.90;;;;;;5103277;28;20512;-83
2021/07/09 04:05:35;;;;;;;1.20;1.10;;;12.60;99.90;;;;;;5102756;28;20229;-83
2021/07/09 04:08:01;;;;;;;0.80;0.80;;;12.60;99.90;;;;;;5102307;28;20180;-83
2021/07/09 04:10:27;;;;;;;0.70;0.70;;;12.60;99.90;;;;;;5102579;28;20659;-83
2021/07/09 04:12:52;;;;;;;0.80;0.80;;;12.60;99.90;;;;;;5101821;28;20213;-83
2021/07/09 04:15:19;;;;;;;0.70;0.70;;;12.60;99.90;;;;;;5101905;28;20205;-83
2021/07/09 04:17:45;;;;;;;1.87;0.80;;;12.60;99.90;;;;;;5101894;28;20183;-83
2021/07/09 04:20:12;;;;;;;1.00;0.90;;;12.60;99.90;;;;;;5101620;28;20667;-83
2021/07/09 04:22:39;;;;;;;1.13;1.00;;;12.60;99.90;;;;;;5102904;28;20176;-83
2021/07/09 04:25:08;;;;;;;2.10;0.80;;;12.70;99.90;;;;;;5101029;28;20180;-83
2021/07/09 04:27:38;;;;;;;0.90;0.80;;;12.70;99.90;;;;;;5100148;28;20221;-83
2021/07/09 04:30:05;;;;;;;0.73;0.73;;;12.60;99.90;;;;;;5101564;28;20198;-83
2021/07/09 04:32:31;;;;;;;0.60;0.60;;;12.60;99.90;;;;;;5100215;28;20206;-83
2021/07/09 04:34:57;;;;;;;0.93;0.60;;;12.70;99.90;;;;;;5101922;28;20209;-82
2021/07/09 04:37:23;;;;;;;1.10;0.60;;;12.60;99.90;;;;;;5099529;28;20255;-82
2021/07/09 04:39:48;;;;;;;0.87;0.70;;;12.70;99.90;;;;;;5100839;28;20189;-83
2021/07/09 04:42:14;;;;;;;1.30;0.60;;;12.70;99.90;;;;;;5100439;28;20636;-83
2021/07/09 04:44:40;;;;;;;0.60;0.60;;;12.70;99.90;;;;;;5098802;28;20529;-82
2021/07/09 04:47:06;;;;;;;0.60;0.60;;;12.70;99.90;;;;;;5097884;28;20233;-82
2021/07/09 04:49:31;;;;;;;1.30;0.70;;;12.70;99.90;;;;;;5096951;28;20202;-83
2021/07/09 04:51:57;;;;;;;0.90;0.80;;;12.70;99.90;;;;;;5097107;28;20209;-82
2021/07/09 04:54:23;;;;;;;1.00;0.60;;;12.70;99.90;;;;;;5096652;28;20206;-83
2021/07/09 04:56:49;;;;;;;1.97;0.90;;;12.70;99.90;;;;;;5110214;28;20196;-83
2021/07/09 04:59:15;;;;;;;0.67;0.67;;;12.70;99.90;;;;;;5107493;28;20253;-82
2021/07/09 05:01:40;;;;;;;0.83;0.70;;;12.70;99.90;;;;;;5106920;28;20220;-82
2021/07/09 05:04:07;;;;;;;2.30;1.90;;;12.70;99.90;;;;;;5108625;28;20206;-83
2021/07/09 05:06:36;;;;;;;2.37;2.17;;;12.70;99.90;;;;;;5109071;28;20179;-82
2021/07/09 05:09:06;;;;;;;2.00;0.70;;;12.70;99.90;;;;;;5101016;28;20196;-82
2021/07/09 05:11:33;;;;;;;1.50;1.30;;;12.70;99.90;;;;;;5102693;28;20191;-82
2021/07/09 05:13:59;;;;;;;1.43;1.10;;;12.70;99.90;;;;;;5101159;28;20204;-81
2021/07/09 05:16:25;;;;;;;1.97;1.47;;;12.80;99.90;;;;;;5100792;28;20215;-82
2021/07/09 05:18:52;;;;;;;11.77;10.23;;;12.70;99.90;;;;;;5095063;28;20179;-82
2021/07/09 05:21:18;;;;;;;81.70;40.00;;;12.80;99.90;;;;;;5092225;28;20301;-82
2021/07/09 05:23:44;;;;;;;61.73;23.43;;;12.80;99.90;;;;;;5085159;28;20626;-82
2021/07/09 05:26:10;;;;;;;25.87;10.00;;;12.70;99.90;;;;;;5085643;28;20174;-82
2021/07/09 05:28:35;;;;;;;13.70;6.93;;;12.70;99.90;;;;;;5078343;28;20288;-82
2021/07/09 05:31:01;;;;;;;14.20;6.20;;;12.70;99.90;;;;;;5079103;28;20250;-83
2021/07/09 05:33:27;;;;;;;5.87;3.10;;;12.70;99.90;;;;;;5081288;28;20230;-82
2021/07/09 05:35:52;;;;;;;4.83;2.90;;;12.70;99.90;;;;;;5080571;28;20206;-82
2021/07/09 05:38:18;;;;;;;2.90;1.50;;;12.70;99.90;;;;;;5082447;28;20192;-82
2021/07/09 05:40:44;;;;;;;1.57;1.43;;;12.70;99.90;;;;;;5081605;28;20669;-81
2021/07/09 05:43:09;;;;;;;1.67;1.57;;;12.70;99.90;;;;;;5080872;28;20179;-80
2021/07/09 05:45:35;;;;;;;5.97;2.10;;;12.70;99.90;;;;;;5082912;28;20681;-81
2021/07/09 05:48:01;;;;;;;2.13;1.53;;;12.70;99.90;;;;;;5085890;28;20626;-82
2021/07/09 05:50:26;;;;;;;1.70;1.53;;;12.70;99.90;;;;;;5085630;28;20248;-81
2021/07/09 05:52:55;;;;;;;2.50;1.77;;;12.60;99.90;;;;;;5087093;28;20186;-81
2021/07/09 05:55:21;;;;;;;3.23;1.70;;;12.70;99.90;;;;;;5086140;28;20262;-81
2021/07/09 05:57:47;;;;;;;4.90;1.73;;;12.70;99.90;;;;;;5082679;28;20180;-81
2021/07/09 06:00:13;;;;;;;4.33;1.60;;;12.60;99.90;;;;;;5082763;28;20673;-82
2021/07/09 06:02:38;;;;;;;3.83;1.53;;;12.60;99.90;;;;;;5080446;28;20597;-82
2021/07/09 06:05:06;;;;;;;4.67;1.77;;;12.60;99.90;;;;;;5083411;28;20620;-81
2021/07/09 06:07:32;;;;;;;3.63;2.23;;;12.60;99.90;;;;;;5082768;28;20543;-81
2021/07/09 06:09:57;;;;;;;3.40;2.57;;;12.60;99.90;;;;;;5080170;28;20236;-81
2021/07/09 06:12:23;;;;;;;1.87;1.63;;;12.60;99.90;;;;;;5080940;28;20228;-81
2021/07/09 06:14:51;;;;;;;2.00;1.47;;;12.60;99.90;;;;;;5080047;28;20684;-81
2021/07/09 06:17:17;;;;;;;1.97;1.83;;;12.50;99.90;;;;;;5080815;28;20176;-81
2021/07/09 06:19:43;;;;;;;1.90;1.63;;;12.50;99.90;;;;;;5081282;28;20244;-80
2021/07/09 06:22:09;;;;;;;1.63;1.43;;;12.60;99.90;;;;;;5081760;28;20179;-81
2021/07/09 06:24:35;;;;;;;2.13;1.83;;;12.60;99.90;;;;;;5082934;28;20590;-81
2021/07/09 06:27:01;;;;;;;2.60;2.20;;;12.60;99.90;;;;;;5081523;28;20179;-81
2021/07/09 06:29:27;;;;;;;2.30;2.00;;;12.60;99.90;;;;;;5082655;28;20224;-81
2021/07/09 06:31:52;;;;;;;3.23;1.67;;;12.60;99.90;;;;;;5082513;28;20199;-82
2021/07/09 06:34:18;;;;;;;2.27;1.90;;;12.60;99.90;;;;;;5080575;28;20196;-81
2021/07/09 06:36:44;;;;;;;2.73;1.70;;;12.60;99.90;;;;;;5082247;28;20168;-81
2021/07/09 06:39:10;;;;;;;1.80;1.70;;;12.70;99.90;;;;;;5080270;28;20195;-82
2021/07/09 06:41:35;;;;;;;1.90;1.70;;;12.60;99.90;;;;;;5080354;28;20177;-82
2021/07/09 06:44:01;;;;;;;1.83;1.70;;;12.70;99.90;;;;;;5079337;28;20310;-82
2021/07/09 06:46:27;;;;;;;2.33;1.90;;;12.70;99.90;;;;;;5081651;28;20619;-82
2021/07/09 06:48:53;;;;;;;1.87;1.77;;;12.70;99.90;;;;;;5082218;28;20548;-82
2021/07/09 06:51:20;;;;;;;3.47;2.30;;;12.70;99.90;;;;;;5081128;28;20180;-82
2021/07/09 06:53:47;;;;;;;2.60;2.40;;;12.70;99.90;;;;;;5079409;28;20227;-82
2021/07/09 06:56:14;;;;;;;4.30;2.60;;;12.70;99.90;;;;;;5079567;28;20255;-82
2021/07/09 06:58:39;;;;;;;2.97;2.70;;;12.60;99.90;;;;;;5078270;28;20191;-82
2021/07/09 07:01:05;;;;;;;3.50;3.00;;;12.60;99.90;;;;;;5079541;28;20184;-82
2021/07/09 07:03:31;;;;;;;2.87;2.53;;;12.70;99.90;;;;;;5079707;28;20184;-82
2021/07/09 07:05:56;;;;;;;11.20;3.40;;;12.60;99.90;;;;;;5082418;28;20199;-83
2021/07/09 07:08:23;;;;;;;14.10;3.03;;;12.60;99.90;;;;;;5081751;28;20187;-82
2021/07/09 07:10:51;;;;;;;2.40;1.80;;;12.60;99.90;;;;;;5081062;28;20191;-82
2021/07/09 07:13:20;;;;;;;2.83;2.00;;;12.60;99.90;;;;;;5083475;28;20183;-82
2021/07/09 07:15:45;;;;;;;2.80;1.97;;;12.60;99.90;;;;;;5085336;28;20208;-82
2021/07/09 07:18:12;;;;;;;1.93;1.73;;;12.60;99.90;;;;;;5086792;28;20543;-82
2021/07/09 07:20:41;;;;;;;2.93;1.77;;;12.70;99.90;;;;;;5088222;28;20201;-82
2021/07/09 07:23:08;;;;;;;2.30;1.87;;;12.70;99.90;;;;;;5088016;28;20224;-82
2021/07/09 07:25:34;;;;;;;2.17;1.77;;;12.70;99.90;;;;;;5079546;28;20183;-82
2021/07/09 07:28:00;;;;;;;5.63;2.10;;;12.70;99.90;;;;;;5078805;28;20200;-82
2021/07/09 07:30:27;;;;;;;2.23;1.70;;;12.70;99.90;;;;;;5078402;28;20207;-81
2021/07/09 07:32:53;;;;;;;2.77;2.10;;;12.70;99.90;;;;;;5077300;28;20208;-81
2021/07/09 07:35:19;;;;;;;2.77;2.50;;;12.70;99.90;;;;;;5076678;28;20214;-82
2021/07/09 07:37:45;;;;;;;2.43;2.17;;;12.70;99.90;;;;;;5091416;28;20191;-81
2021/07/09 07:40:11;;;;;;;3.50;2.30;;;12.70;99.90;;;;;;5081576;28;20204;-82
2021/07/09 07:42:37;;;;;;;2.83;2.63;;;12.70;99.90;;;;;;5081305;28;20262;-82
2021/07/09 07:45:04;;;;;;;3.83;3.23;;;12.70;99.90;;;;;;5081361;28;20176;-82
2021/07/09 07:47:30;;;;;;;4.37;2.90;;;12.70;99.90;;;;;;5082395;28;20227;-82
2021/07/09 07:49:56;;;;;;;5.37;2.93;;;12.80;99.90;;;;;;5081898;28;20197;-82
2021/07/09 07:52:22;;;;;;;3.77;2.80;;;12.80;99.90;;;;;;5082991;28;20587;-82
2021/07/09 07:54:48;;;;;;;3.17;2.87;;;12.80;99.90;;;;;;5082131;28;20196;-82
2021/07/09 07:57:13;;;;;;;4.37;3.17;;;12.80;99.90;;;;;;5079723;28;20531;-82
2021/07/09 07:59:39;;;;;;;5.37;3.23;;;12.80;99.90;;;;;;5080556;28;20648;-82
2021/07/09 08:02:05;;;;;;;4.33;3.07;;;12.90;99.90;;;;;;5081552;28;20535;-82
2021/07/09 08:04:30;;;;;;;5.03;3.57;;;12.90;99.90;;;;;;5080986;28;20187;-82
2021/07/09 08:06:58;;;;;;;3.83;3.40;;;12.90;99.90;;;;;;5080659;28;20238;-82
2021/07/09 08:09:24;;;;;;;5.77;3.30;;;12.90;99.90;;;;;;5082461;28;20197;-82
2021/07/09 08:11:51;;;;;;;5.87;3.57;;;12.90;99.90;;;;;;5081621;28;20187;-83
2021/07/09 08:14:17;;;;;;;5.67;3.37;;;12.90;99.90;;;;;;5082868;28;20208;-82
2021/07/09 08:16:42;;;;;;;4.57;3.40;;;12.90;99.90;;;;;;5082604;28;20169;-82
2021/07/09 08:19:08;;;;;;;5.20;3.47;;;12.90;99.90;;;;;;5081270;28;20213;-82
2021/07/09 08:21:33;;;;;;;7.27;3.50;;;12.90;99.90;;;;;;5081242;28;20625;-83
2021/07/09 08:23:59;;;;;;;5.17;3.20;;;12.90;99.90;;;;;;5079725;28;20572;-82
2021/07/09 08:26:26;;;;;;;5.03;3.57;;;13.00;99.90;;;;;;5082223;28;20221;-82
2021/07/09 08:28:52;;;;;;;4.10;3.17;;;13.00;99.90;;;;;;5080266;28;20556;-82
2021/07/09 08:31:17;;;;;;;3.47;3.17;;;13.00;99.90;;;;;;5081714;28;20207;-82
2021/07/09 08:33:43;;;;;;;3.77;2.90;;;13.10;99.90;;;;;;5080072;28;20174;-82
2021/07/09 08:36:09;;;;;;;5.10;2.63;;;13.10;99.90;;;;;;5081656;28;20186;-82
2021/07/09 08:38:34;;;;;;;4.67;3.53;;;13.20;99.90;;;;;;5082915;28;20167;-82
2021/07/09 08:41:00;;;;;;;6.17;2.70;;;13.30;99.90;;;;;;5080707;28;20196;-83
2021/07/09 08:43:26;;;;;;;4.13;3.20;;;13.20;99.90;;;;;;5083702;28;20173;-83
2021/07/09 08:45:51;;;;;;;3.33;2.80;;;13.20;99.90;;;;;;5082831;28;20176;-82
2021/07/09 08:48:19;;;;;;;3.27;2.90;;;13.40;99.90;;;;;;5082614;28;20180;-82
2021/07/09 08:50:45;;;;;;;4.10;3.10;;;13.40;99.90;;;;;;5083441;28;20180;-83
2021/07/09 08:53:10;;;;;;;3.10;2.80;;;13.40;99.90;;;;;;5081715;28;20173;-83
2021/07/09 08:55:38;;;;;;;3.97;3.10;;;13.50;99.90;;;;;;5082233;28;20204;-83
2021/07/09 08:58:05;;;;;;;3.70;3.30;;;13.50;99.90;;;;;;5083062;28;20175;-82
2021/07/09 09:00:34;;;;;;;5.67;3.63;;;13.60;99.90;;;;;;5081865;28;20688;-82
2021/07/09 09:03:09;;;;;;;3.47;2.50;;;13.70;99.90;;;;;;5080067;28;20205;-82
2021/07/09 09:05:35;;;;;;;3.50;3.10;;;13.80;99.90;;;;;;5081581;28;20210;-82
2021/07/09 09:08:05;;;;;;;7.60;3.30;;;13.90;99.90;;;;;;5081148;28;20180;-82
2021/07/09 09:10:34;;;;;;;3.47;3.17;;;14.00;99.90;;;;;;5081458;28;20197;-82
2021/07/09 09:13:11;;;;;;;4.10;2.90;;;14.00;99.90;;;;;;5083668;28;20200;-82
2021/07/09 09:15:38;;;;;;;3.47;3.00;;;14.00;99.90;;;;;;5081408;28;20193;-82
2021/07/09 09:18:20;;;;;;;4.00;2.93;;;14.10;99.90;;;;;;5083764;28;20169;-82
2021/07/09 09:21:13;;;;;;;4.47;2.73;;;14.10;99.90;;;;;;5081034;28;20189;-83
2021/07/09 09:23:51;;;;;;;4.17;2.80;;;14.30;99.90;;;;;;5081774;28;20180;-82
2021/07/09 09:26:56;;;;;;;3.43;2.40;;;14.30;99.90;;;;;;5082537;28;20178;-82
2021/07/09 09:29:25;;;;;;;3.90;2.47;;;14.40;99.90;;;;;;5080591;28;20211;-82
2021/07/09 09:31:56;;;;;;;5.00;2.73;;;14.50;99.90;;;;;;5080579;28;20169;-82
2021/07/09 09:34:43;;;;;;;3.83;2.60;;;14.50;99.90;;;;;;5082339;28;20196;-82
2021/07/09 09:37:09;;;;;;;2.63;2.40;;;14.60;99.90;;;;;;5082053;28;20179;-82
2021/07/09 09:39:38;;;;;;;2.47;2.23;;;14.70;99.90;;;;;;5084283;28;20185;-83
2021/07/09 09:42:21;;;;;;;5.10;2.37;;;14.70;99.90;;;;;;5082848;28;20263;-82
2021/07/09 09:44:52;;;;;;;2.87;2.60;;;14.80;99.90;;;;;;5076673;28;20185;-82
2021/07/09 09:47:20;;;;;;;3.90;2.60;;;14.80;99.90;;;;;;5076540;28;20177;-82
2021/07/09 09:49:54;;;;;;;5.70;2.90;;;14.70;99.90;;;;;;5076251;28;20204;-82
2021/07/09 09:52:53;;;;;;;8.93;3.33;;;14.70;99.90;;;;;;5076546;28;20173;-82
2021/07/09 09:55:22;;;;;;;4.87;2.70;;;14.70;99.90;;;;;;5053867;28;20295;-82
2021/07/09 09:58:13;;;;;;;2.60;2.37;;;14.70;99.90;;;;;;5077204;28;20189;-82
2021/07/09 10:00:41;;;;;;;3.27;2.63;;;14.70;99.90;;;;;;5076964;28;20292;-82
2021/07/09 10:03:07;;;;;;;3.43;3.00;;;14.60;99.90;;;;;;5077802;28;20177;-82
2021/07/09 10:05:41;;;;;;;3.07;2.53;;;14.60;99.90;;;;;;5079000;28;20179;-82
2021/07/09 10:08:13;;;;;;;3.53;2.37;;;14.60;99.90;;;;;;5077692;28;20254;-82
2021/07/09 10:10:40;;;;;;;2.63;2.30;;;14.60;99.90;;;;;;5077237;28;20197;-82
2021/07/09 10:13:08;;;;;;;2.83;2.07;;;14.60;99.90;;;;;;5077763;28;20173;-82
2021/07/09 10:15:35;;;;;;;5.13;2.70;;;14.60;99.90;;;;;;5078014;28;20279;-82
2021/07/09 10:18:01;;;;;;;3.53;2.50;;;14.70;99.90;;;;;;5076068;28;20264;-82
2021/07/09 10:20:27;;;;;;;14.93;3.17;;;14.70;99.90;;;;;;5075511;28;20293;-82
2021/07/09 10:22:56;;;;;;;2.37;2.17;;;14.70;99.90;;;;;;5089049;28;20177;-82
2021/07/09 10:25:23;;;;;;;2.23;2.03;;;14.80;99.90;;;;;;5078558;28;20177;-82
2021/07/09 10:27:49;;;;;;;2.77;2.20;;;15.00;99.90;;;;;;5077656;28;20192;-82
2021/07/09 10:30:15;;;;;;;4.40;2.60;;;15.20;99.90;;;;;;5078203;28;20250;-82
2021/07/09 10:32:44;;;;;;;2.47;2.13;;;15.30;99.90;;;;;;5078372;28;20177;-82
2021/07/09 10:35:33;;;;;;;3.13;2.30;;;15.40;99.90;;;;;;5078406;28;20201;-82
2021/07/09 10:38:21;;;;;;;5.43;2.37;;;15.30;99.90;;;;;;5078406;28;20192;-82
2021/07/09 10:40:46;;;;;;;3.20;2.40;;;15.20;99.90;;;;;;5077900;28;20195;-82
2021/07/09 10:43:14;;;;;;;3.60;2.40;;;15.30;99.90;;;;;;5079205;28;20169;-82
2021/07/09 10:45:41;;;;;;;5.07;2.67;;;15.20;99.90;;;;;;5080406;28;20179;-82
2021/07/09 10:48:12;;;;;;;2.77;2.23;;;15.20;99.90;;;;;;5079486;28;20173;-82
2021/07/09 10:50:53;;;;;;;2.37;2.17;;;15.40;99.90;;;;;;5079264;28;20604;-82
2021/07/09 10:53:25;;;;;;;3.40;2.40;;;15.70;99.90;;;;;;5077206;28;20180;-82
2021/07/09 10:55:53;;;;;;;2.47;2.27;;;16.10;99.90;;;;;;5078100;28;20211;-82
2021/07/09 10:58:20;;;;;;;4.83;2.10;;;16.30;99.90;;;;;;5078277;28;20570;-82
2021/07/09 11:00:55;;;;;;;2.87;2.17;;;16.40;99.90;;;;;;5076332;28;20330;-82
2021/07/09 11:03:28;;;;;;;6.33;2.60;;;16.50;99.90;;;;;;5076504;28;20693;-82
2021/07/09 11:05:56;;;;;;;2.60;2.10;;;16.40;99.90;;;;;;5076348;28;20176;-82
2021/07/09 11:08:31;;;;;;;3.13;2.10;;;16.50;99.90;;;;;;5077822;28;20176;-82
2021/07/09 11:10:58;;;;;;;2.97;2.40;;;16.50;99.90;;;;;;5076107;28;20196;-82
2021/07/09 11:13:42;;;;;;;4.33;3.20;;;16.60;99.90;;;;;;5084565;28;20184;-82
2021/07/09 11:16:21;;;;;;;3.10;2.07;;;16.70;99.90;;;;;;5095961;28;20185;-82
2021/07/09 11:19:07;;;;;;;3.40;2.00;;;16.80;99.90;;;;;;5097215;28;20259;-82
2021/07/09 11:21:33;;;;;;;4.27;2.10;;;17.40;99.90;;;;;;5097164;28;20530;-82
2021/07/09 11:24:11;;;;;;;2.97;2.03;;;17.60;99.90;;;;;;5098550;28;20183;-81
2021/07/09 11:26:42;;;;;;;4.60;2.10;;;17.60;99.90;;;;;;5101222;28;20176;-82
2021/07/09 11:29:17;;;;;;;1.80;1.70;;;17.70;99.90;;;;;;5095968;28;20554;-82
2021/07/09 11:31:43;;;;;;;1.97;1.77;;;17.90;99.90;;;;;;5095789;28;20174;-82
2021/07/09 11:34:10;;;;;;;2.30;2.10;;;18.20;99.90;;;;;;5097643;28;20716;-81
2021/07/09 11:36:40;;;;;;;3.33;1.87;;;18.00;99.90;;;;;;5098142;28;20183;-82
2021/07/09 11:39:26;;;;;;;5.07;1.93;;;18.10;99.90;;;;;;5098749;28;20192;-82
2021/07/09 11:41:57;;;;;;;2.57;1.83;;;18.10;99.90;;;;;;5098629;28;20185;-82
2021/07/09 11:44:27;;;;;;;2.43;1.97;;;18.00;99.90;;;;;;5098282;28;20168;-82
2021/07/09 11:46:59;;;;;;;3.20;1.70;;;17.80;99.90;;;;;;5098768;28;20166;-82
2021/07/09 11:49:35;;;;;;;4.40;1.60;;;17.60;99.90;;;;;;5098118;28;20684;-81
2021/07/09 11:52:05;;;;;;;1.60;1.50;;;17.40;99.90;;;;;;5099759;28;20168;-81
2021/07/09 11:54:39;;;;;;;2.37;1.70;;;17.40;99.90;;;;;;5096355;28;20188;-82
2021/07/09 11:57:11;;;;;;;2.33;1.80;;;18.00;99.90;;;;;;5095763;28;20173;-82
2021/07/09 11:59:38;;;;;;;2.47;2.20;;;19.50;99.90;;;;;;5099355;28;20293;-83
2021/07/09 12:02:24;;;;;;;3.80;1.90;;;20.90;99.90;;;;;;5100062;28;20186;-83
2021/07/09 12:04:51;;;;;;;1.73;1.63;;;20.90;99.90;;;;;;5099502;28;20172;-81
2021/07/09 12:07:21;;;;;;;3.00;1.83;;;20.00;99.90;;;;;;5101536;28;20515;-80
2021/07/09 12:09:51;;;;;;;1.70;1.60;;;19.50;99.90;;;;;;5099524;28;20568;-82
2021/07/09 12:12:18;;;;;;;3.43;1.90;;;19.00;99.90;;;;;;5100196;28;20199;-82
2021/07/09 12:14:53;;;;;;;1.80;1.70;;;19.20;99.90;;;;;;5101048;28;20269;-83
2021/07/09 12:17:20;;;;;;;1.80;1.53;;;20.90;99.90;;;;;;5100195;28;20180;-83
2021/07/09 12:19:55;;;;;;;2.23;1.50;;;21.80;99.90;;;;;;5099783;28;20240;-83
2021/07/09 12:22:22;;;;;;;2.57;1.40;;;21.10;99.90;;;;;;5099853;28;20174;-83
2021/07/09 12:24:50;;;;;;;1.80;1.67;;;20.20;99.90;;;;;;5099240;28;20208;-83
2021/07/09 12:27:16;;;;;;;1.80;1.27;;;19.70;99.90;;;;;;5100341;28;20189;-83
2021/07/09 12:29:42;;;;;;;2.70;1.57;;;19.30;99.90;;;;;;5100403;28;20197;-83
2021/07/09 12:32:08;;;;;;;1.77;1.60;;;19.10;99.90;;;;;;5099005;28;20195;-83
2021/07/09 12:34:34;;;;;;;4.03;1.60;;;19.20;99.90;;;;;;5098761;28;20208;-82
2021/07/09 12:37:04;;;;;;;2.70;1.80;;;19.30;99.90;;;;;;5100144;28;20215;-82
2021/07/09 12:39:30;;;;;;;2.10;1.50;;;20.10;99.90;;;;;;5098978;28;20270;-83
2021/07/09 12:41:55;;;;;;;3.67;1.80;;;21.50;99.90;;;;;;5100624;28;20209;-82
2021/07/09 12:44:21;;;;;;;3.00;1.40;;;22.00;99.90;;;;;;5110216;28;20180;-83
2021/07/09 12:46:47;;;;;;;1.30;1.10;;;22.00;99.90;;;;;;5101323;28;20205;-83
2021/07/09 12:49:21;;;;;;;2.87;1.50;;;22.90;99.90;;;;;;5100195;28;20566;-83